Terminal Aerodrome Forecast
Issued by NWS

Home | Current Version | Previous Version | Text Only | Print | Product List | Glossary On
Versions: 1 2 3 4 5 6 7 8 9 10 11 12 13 14 15
000
FTUS43 KJKL 211100 AAA
TAFSME
TAF AMD
KSME 211100Z 2111/2206 VRB06KT P6SM SCT025 BKN040
     FM211300 VRB03KT P6SM BKN025
     FM211700 VRB03KT P6SM BKN035
     FM212300 VRB06KT P6SM VCSH SCT035 BKN070=

USA.gov is the U.S. government's official web portal to all federal, state and local government web resources and services.